Salamis Filoxenia — 5BUY2 — position and weather

sailwx.info

Track history (hours):
 
Tides and Currents Weather Stations Pressure Air Temp Water Temp Dewpoint Dewpoint Depression Visibility Wind Speed Wind Dir Waves Ship Positions

Salamis Filoxenia

Last reported at 2015-Jul-03 01:18 UTC. Time now 2015-Jul-05 07:46 UTC.
Position N 37°56' E 025°18'.

Length 157 m; draft 6.2 m.

Type: Passenger vessel. MMSI: 209167000.

Date/timePositionNaut miles runAvg speedWind from/ knotsBaromVisibWave heightAir tempDewpointWater temp
2015-Jul-03 01:18N 37°56' E 025°18'1114.1
2015-Jul-03 00:33N 37°49' E 025°28'1413.9
2015-Jul-02 23:33N 37°40' E 025°41'1414.1
2015-Jul-02 22:34N 37°31' E 025°55'1514.9
2015-Jul-02 21:33N 37°24' E 026°12'34811.2
2015-Jul-01 14:33N 34°39' E 032°31'1615.6
2015-Jul-01 13:33N 34°34' E 032°49'1212.2
2015-Jul-01 12:34N 34°36' E 033°03'4 4.1
2015-Jul-01 11:33N 34°39' E 033°01'0 0.0
2015-Jul-01 10:33N 34°39' E 033°01'0 0.0
2015-Jul-01 09:33N 34°39' E 033°01'0 0.0
2015-Jul-01 08:33N 34°39' E 033°01'0 0.0
2015-Jul-01 07:33N 34°39' E 033°01'0 0.0
2015-Jul-01 06:33N 34°39' E 033°01'8 7.9
2015-Jul-01 05:33N 34°32' E 032°58'1413.9
2015-Jul-01 04:33N 34°36' E 032°41'  
2015-Jun-26 14:33N 34°39' E 032°33'1414.3
2015-Jun-26 13:33N 34°34' E 032°50'1211.6
2015-Jun-26 12:33N 34°35' E 033°04'5 4.7
2015-Jun-26 11:31N 34°39' E 033°01'0 0.0
2015-Jun-26 10:31N 34°39' E 033°01'0 0.0
2015-Jun-26 09:31N 34°39' E 033°01'0 0.0
2015-Jun-26 08:31N 34°39' E 033°01'0 0.0
2015-Jun-26 07:31N 34°39' E 033°01'0 0.0
2015-Jun-26 06:32N 34°39' E 033°01'0 0.0
2015-Jun-26 05:33N 34°39' E 033°01'0 0.0
2015-Jun-26 04:33N 34°39' E 033°01'0 0.0
2015-Jun-26 03:33N 34°39' E 033°01'1413.9
2015-Jun-26 02:33N 34°29' E 033°13'1514.9
2015-Jun-26 01:33N 34°18' E 033°25'1414.3
2015-Jun-26 00:33N 34°07' E 033°36'1414.4
2015-Jun-25 23:33N 33°56' E 033°47'1614.9
2015-Jun-25 22:28N 33°43' E 033°59'61 2.0
2015-Jun-24 16:23N 34°30' E 033°12'1214.5
2015-Jun-24 15:33N 34°39' E 033°02'1 0.9
2015-Jun-24 14:32N 34°39' E 033°01'0 0.0
2015-Jun-24 13:33N 34°39' E 033°01'0 0.0
2015-Jun-24 12:33N 34°39' E 033°01'0 0.0
2015-Jun-24 11:33N 34°39' E 033°01'0 0.0
2015-Jun-24 10:29N 34°39' E 033°01'0 0.0
2015-Jun-24 09:33N 34°39' E 033°01'0 0.5
2015-Jun-24 08:33N 34°39' E 033°01'8 7.8
2015-Jun-24 07:33N 34°32' E 032°57'1414.5
2015-Jun-24 06:33N 34°36' E 032°41'  
Track history (hours):
 
Tides and Currents Weather Stations Pressure Air Temp Water Temp Dewpoint Dewpoint Depression Visibility Wind Speed Wind Dir Waves Ship Positions

Salamis Filoxenia

Last reported at 2015-Jul-03 01:18 UTC. Time now 2015-Jul-05 07:46 UTC.
Position N 37°56' E 025°18'.

Length 157 m; draft 6.2 m.

Type: Passenger vessel. MMSI: 209167000.

Date/timePositionNaut miles runAvg speedWind from/ knotsBaromVisibWave heightAir tempDewpointWater temp
2015-Jul-03 01:18N 37°56' E 025°18'1114.1
2015-Jul-03 00:33N 37°49' E 025°28'1413.9
2015-Jul-02 23:33N 37°40' E 025°41'1414.1
2015-Jul-02 22:34N 37°31' E 025°55'1514.9
2015-Jul-02 21:33N 37°24' E 026°12'34811.2
2015-Jul-01 14:33N 34°39' E 032°31'1615.6
2015-Jul-01 13:33N 34°34' E 032°49'1212.2
2015-Jul-01 12:34N 34°36' E 033°03'4 4.1
2015-Jul-01 11:33N 34°39' E 033°01'0 0.0
2015-Jul-01 10:33N 34°39' E 033°01'0 0.0
2015-Jul-01 09:33N 34°39' E 033°01'0 0.0
2015-Jul-01 08:33N 34°39' E 033°01'0 0.0
2015-Jul-01 07:33N 34°39' E 033°01'0 0.0
2015-Jul-01 06:33N 34°39' E 033°01'8 7.9
2015-Jul-01 05:33N 34°32' E 032°58'1413.9
2015-Jul-01 04:33N 34°36' E 032°41'  
2015-Jun-26 14:33N 34°39' E 032°33'1414.3
2015-Jun-26 13:33N 34°34' E 032°50'1211.6
2015-Jun-26 12:33N 34°35' E 033°04'5 4.7
2015-Jun-26 11:31N 34°39' E 033°01'0 0.0
2015-Jun-26 10:31N 34°39' E 033°01'0 0.0
2015-Jun-26 09:31N 34°39' E 033°01'0 0.0
2015-Jun-26 08:31N 34°39' E 033°01'0 0.0
2015-Jun-26 07:31N 34°39' E 033°01'0 0.0
2015-Jun-26 06:32N 34°39' E 033°01'0 0.0
2015-Jun-26 05:33N 34°39' E 033°01'0 0.0
2015-Jun-26 04:33N 34°39' E 033°01'0 0.0
2015-Jun-26 03:33N 34°39' E 033°01'1413.9
2015-Jun-26 02:33N 34°29' E 033°13'1514.9
2015-Jun-26 01:33N 34°18' E 033°25'1414.3
2015-Jun-26 00:33N 34°07' E 033°36'1414.4
2015-Jun-25 23:33N 33°56' E 033°47'1614.9
2015-Jun-25 22:28N 33°43' E 033°59'61 2.0
2015-Jun-24 16:23N 34°30' E 033°12'1214.5
2015-Jun-24 15:33N 34°39' E 033°02'1 0.9
2015-Jun-24 14:32N 34°39' E 033°01'0 0.0
2015-Jun-24 13:33N 34°39' E 033°01'0 0.0
2015-Jun-24 12:33N 34°39' E 033°01'0 0.0
2015-Jun-24 11:33N 34°39' E 033°01'0 0.0
2015-Jun-24 10:29N 34°39' E 033°01'0 0.0
2015-Jun-24 09:33N 34°39' E 033°01'0 0.5
2015-Jun-24 08:33N 34°39' E 033°01'8 7.8
2015-Jun-24 07:33N 34°32' E 032°57'1414.5
2015-Jun-24 06:33N 34°36' E 032°41'  

Dump ship's entire track history